createdAt,value
2019-03-16T00:00:13.247Z,7.02
2019-03-16T00:01:13.218Z,7.02
2019-03-16T00:02:13.226Z,7.05
2019-03-16T00:03:13.224Z,7.02
2019-03-16T00:04:13.189Z,6.95
2019-03-16T00:05:13.173Z,7.05
2019-03-16T00:06:13.178Z,7.06
2019-03-16T00:07:13.151Z,7.06
2019-03-16T00:08:13.153Z,7.03
2019-03-16T00:09:13.167Z,7.06
2019-03-16T00:10:13.121Z,7.07
2019-03-16T00:11:13.114Z,7.07
2019-03-16T00:12:13.117Z,7.00
2019-03-16T00:13:15.949Z,6.93
2019-03-16T00:14:13.086Z,7.05
2019-03-16T00:15:13.088Z,6.99
2019-03-16T00:16:13.062Z,6.96
2019-03-16T00:17:23.320Z,6.92
2019-03-16T00:18:14.030Z,6.87
2019-03-16T00:19:13.028Z,6.85
2019-03-16T00:20:13.023Z,6.87
2019-03-16T00:21:13.078Z,6.87
2019-03-16T00:22:12.995Z,6.87
2019-03-16T00:23:12.979Z,6.88
2019-03-16T00:24:12.958Z,6.93
2019-03-16T00:25:12.966Z,6.93
2019-03-16T00:26:12.947Z,6.93
2019-03-16T00:27:12.946Z,6.99
2019-03-16T00:28:12.957Z,6.92
2019-03-16T00:29:12.912Z,6.87
2019-03-16T00:30:12.895Z,6.78
2019-03-16T00:31:12.888Z,6.81
2019-03-16T00:32:13.895Z,6.84
2019-03-16T00:33:12.877Z,6.87
2019-03-16T00:34:12.893Z,6.82
2019-03-16T00:35:12.886Z,6.84
2019-03-16T00:36:12.832Z,6.87
2019-03-16T00:37:12.817Z,6.81
2019-03-16T00:38:12.819Z,6.84
2019-03-16T00:39:12.827Z,6.92
2019-03-16T00:40:12.787Z,6.87
2019-03-16T00:41:12.776Z,6.79
2019-03-16T00:42:12.767Z,6.92
2019-03-16T00:43:12.758Z,6.87
2019-03-16T00:44:12.757Z,6.87
2019-03-16T00:45:12.796Z,6.85
2019-03-16T00:46:12.738Z,6.75
2019-03-16T00:47:12.722Z,6.78
2019-03-16T00:48:12.696Z,6.82
2019-03-16T00:49:12.691Z,6.78
2019-03-16T00:50:12.675Z,6.88
2019-03-16T00:51:12.689Z,6.82
2019-03-16T00:52:12.673Z,6.85
2019-03-16T00:53:12.657Z,6.82
2019-03-16T00:54:12.631Z,6.78
2019-03-16T00:55:12.644Z,6.77
2019-03-16T00:56:12.614Z,6.82
2019-03-16T00:57:12.654Z,6.85
2019-03-16T00:58:12.622Z,6.75
2019-03-16T00:59:12.581Z,6.72
2019-03-16T01:00:12.574Z,6.77
2019-03-16T01:01:12.555Z,6.67
2019-03-16T01:02:26.214Z,6.70
2019-03-16T01:03:13.555Z,6.67
2019-03-16T01:04:12.537Z,6.72
2019-03-16T01:05:12.522Z,6.75
2019-03-16T01:06:12.509Z,6.77
2019-03-16T01:07:12.515Z,6.70
2019-03-16T01:08:12.484Z,6.66
2019-03-16T01:09:12.469Z,6.74
2019-03-16T01:10:12.477Z,6.60
2019-03-16T01:11:12.449Z,6.60
2019-03-16T01:12:12.437Z,6.69
2019-03-16T01:13:12.443Z,6.67
2019-03-16T01:14:12.411Z,6.69
2019-03-16T01:15:12.420Z,6.66
2019-03-16T01:16:12.413Z,6.64
2019-03-16T01:17:12.386Z,6.48
2019-03-16T01:18:12.373Z,6.59
2019-03-16T01:19:12.428Z,6.56
2019-03-16T01:20:12.364Z,6.54
2019-03-16T01:21:12.356Z,6.56
2019-03-16T01:22:12.326Z,6.52
2019-03-16T01:23:12.310Z,6.49
2019-03-16T01:24:12.310Z,6.59
2019-03-16T01:25:12.311Z,6.64
2019-03-16T01:26:12.293Z,6.62
2019-03-16T01:27:12.275Z,6.63
2019-03-16T01:28:12.299Z,6.67
2019-03-16T01:29:12.249Z,6.62
2019-03-16T01:30:12.240Z,6.67
2019-03-16T01:31:12.223Z,6.60
2019-03-16T01:32:12.219Z,6.64
2019-03-16T01:33:12.227Z,6.51
2019-03-16T01:34:12.217Z,6.51
2019-03-16T01:35:12.201Z,6.51
2019-03-16T01:36:12.190Z,6.54
2019-03-16T01:37:12.155Z,6.60
2019-03-16T01:38:12.156Z,6.49
2019-03-16T01:39:12.188Z,6.44
2019-03-16T01:40:12.156Z,6.48
2019-03-16T01:41:12.141Z,6.46
2019-03-16T01:42:12.102Z,6.57
2019-03-16T01:43:12.092Z,6.51
2019-03-16T01:44:12.090Z,6.56
2019-03-16T01:45:12.108Z,6.49
2019-03-16T01:46:12.072Z,6.46
2019-03-16T01:47:12.083Z,6.52
2019-03-16T01:48:12.074Z,6.51
2019-03-16T01:49:12.031Z,6.46
2019-03-16T01:50:12.037Z,6.54
2019-03-16T01:51:12.042Z,6.46
2019-03-16T01:52:11.998Z,6.49
2019-03-16T01:53:11.997Z,6.56
2019-03-16T01:54:11.969Z,6.42
2019-03-16T01:55:11.965Z,6.38
2019-03-16T01:56:11.955Z,6.51
2019-03-16T01:57:11.966Z,6.54
2019-03-16T01:58:18.851Z,6.51
2019-03-16T01:59:11.959Z,6.52
2019-03-16T02:00:11.908Z,6.45
2019-03-16T02:01:11.908Z,6.46
2019-03-16T02:02:12.138Z,6.54
2019-03-16T02:03:11.874Z,6.57
2019-03-16T02:04:11.876Z,6.51
2019-03-16T02:05:11.891Z,6.54
2019-03-16T02:06:11.841Z,6.57
2019-03-16T02:07:11.896Z,6.52
2019-03-16T02:08:11.855Z,6.49
2019-03-16T02:09:11.826Z,6.63
2019-03-16T02:10:11.867Z,6.59
2019-03-16T02:11:11.780Z,6.56
2019-03-16T02:12:11.781Z,6.48
2019-03-16T02:13:11.789Z,6.48
2019-03-16T02:14:11.748Z,6.54
2019-03-16T02:15:11.735Z,6.56
2019-03-16T02:16:11.805Z,6.51
2019-03-16T02:17:11.730Z,6.57
2019-03-16T02:18:11.720Z,6.52
2019-03-16T02:19:11.698Z,6.51
2019-03-16T02:20:11.708Z,6.59
2019-03-16T02:21:11.729Z,6.60
2019-03-16T02:22:11.682Z,6.64
2019-03-16T02:23:11.671Z,6.49
2019-03-16T02:24:11.660Z,6.49
2019-03-16T02:25:11.640Z,6.54
2019-03-16T02:26:11.623Z,6.66
2019-03-16T02:27:11.613Z,6.62
2019-03-16T02:28:11.625Z,6.69
2019-03-16T02:29:11.600Z,6.59
2019-03-16T02:30:11.599Z,6.70
2019-03-16T02:31:11.577Z,6.70
2019-03-16T02:32:11.563Z,6.66
2019-03-16T02:33:13.656Z,6.69
2019-03-16T02:34:11.551Z,6.69
2019-03-16T02:35:11.543Z,6.70
2019-03-16T02:36:11.518Z,6.60
2019-03-16T02:37:11.499Z,6.64
2019-03-16T02:38:11.519Z,6.62
2019-03-16T02:39:11.483Z,6.49
2019-03-16T02:40:11.466Z,6.51
2019-03-16T02:41:11.464Z,6.57
2019-03-16T02:42:11.447Z,6.48
2019-03-16T02:43:11.435Z,6.39
2019-03-16T02:44:11.681Z,6.41
2019-03-16T02:45:11.421Z,6.42
2019-03-16T02:46:11.429Z,6.44
2019-03-16T02:47:11.395Z,6.27
2019-03-16T02:48:11.383Z,6.41
2019-03-16T02:49:11.366Z,6.28
2019-03-16T02:50:11.366Z,6.38
2019-03-16T02:51:11.351Z,6.30
2019-03-16T02:52:11.365Z,6.27
2019-03-16T02:53:11.322Z,6.42
2019-03-16T02:54:11.328Z,6.33
2019-03-16T02:55:11.298Z,6.41
2019-03-16T02:56:11.308Z,6.39
2019-03-16T02:57:11.291Z,6.41
2019-03-16T02:58:11.295Z,6.30
2019-03-16T02:59:11.318Z,6.35
2019-03-16T03:00:11.253Z,6.39
2019-03-16T03:01:11.250Z,6.39
2019-03-16T03:02:11.233Z,6.41
2019-03-16T03:03:28.125Z,6.30
2019-03-16T03:04:12.227Z,6.39
2019-03-16T03:05:11.230Z,6.28
2019-03-16T03:06:11.188Z,6.27
2019-03-16T03:07:11.175Z,6.24
2019-03-16T03:08:11.156Z,6.27
2019-03-16T03:09:11.199Z,6.28
2019-03-16T03:10:11.140Z,6.28
2019-03-16T03:11:11.127Z,6.27
2019-03-16T03:12:11.127Z,6.27
2019-03-16T03:13:13.580Z,6.24
2019-03-16T03:14:11.103Z,6.27
2019-03-16T03:15:11.103Z,6.26
2019-03-16T03:16:11.102Z,6.30
2019-03-16T03:17:11.061Z,6.33
2019-03-16T03:18:11.044Z,6.22
2019-03-16T03:19:11.053Z,6.22
2019-03-16T03:20:11.031Z,6.22
2019-03-16T03:21:11.012Z,6.20
2019-03-16T03:22:11.054Z,6.27
2019-03-16T03:23:11.001Z,6.26
2019-03-16T03:24:10.985Z,6.17
2019-03-16T03:25:10.978Z,6.24
2019-03-16T03:26:10.967Z,6.27
2019-03-16T03:27:10.956Z,6.22
2019-03-16T03:28:10.970Z,6.20
2019-03-16T03:29:25.884Z,6.19
2019-03-16T03:30:10.943Z,6.14
2019-03-16T03:31:10.911Z,5.99
2019-03-16T03:32:11.226Z,6.19
2019-03-16T03:33:10.897Z,6.17
2019-03-16T03:34:10.876Z,6.19
2019-03-16T03:35:10.883Z,6.17
2019-03-16T03:36:10.850Z,6.16
2019-03-16T03:37:10.847Z,6.22
2019-03-16T03:38:10.840Z,6.16
2019-03-16T03:39:10.828Z,6.17
2019-03-16T03:40:10.806Z,6.24
2019-03-16T03:41:10.817Z,6.26
2019-03-16T03:42:10.780Z,6.20
2019-03-16T03:43:10.813Z,6.24
2019-03-16T03:44:10.761Z,6.19
2019-03-16T03:45:10.770Z,6.17
2019-03-16T03:46:10.749Z,6.14
2019-03-16T03:47:10.737Z,6.09
2019-03-16T03:48:10.739Z,6.09
2019-03-16T03:49:10.724Z,6.09
2019-03-16T03:50:10.721Z,6.07
2019-03-16T03:51:10.681Z,6.09
2019-03-16T03:52:10.707Z,6.11
2019-03-16T03:53:10.901Z,6.11
2019-03-16T03:54:10.656Z,6.07
2019-03-16T03:55:10.662Z,6.08
2019-03-16T03:56:10.815Z,6.08
2019-03-16T03:57:10.652Z,6.08
2019-03-16T03:58:10.638Z,6.04
2019-03-16T03:59:10.598Z,6.07
2019-03-16T04:00:10.587Z,6.07
2019-03-16T04:01:10.583Z,6.04
2019-03-16T04:02:10.580Z,6.07
2019-03-16T04:03:10.557Z,6.04
2019-03-16T04:04:15.681Z,6.07
2019-03-16T04:05:11.539Z,6.09
2019-03-16T04:06:10.516Z,6.11
2019-03-16T04:07:10.518Z,6.07
2019-03-16T04:08:10.523Z,6.08
2019-03-16T04:09:10.507Z,6.09
2019-03-16T04:10:10.504Z,6.07
2019-03-16T04:11:10.463Z,6.11
2019-03-16T04:12:10.459Z,6.19
2019-03-16T04:13:10.456Z,6.24
2019-03-16T04:14:10.457Z,6.31
2019-03-16T04:15:10.446Z,6.35
2019-03-16T04:16:10.409Z,6.45
2019-03-16T04:17:10.398Z,6.45
2019-03-16T04:18:10.389Z,6.45
2019-03-16T04:19:10.493Z,6.36
2019-03-16T04:20:10.385Z,6.45
2019-03-16T04:21:10.376Z,6.38
2019-03-16T04:22:10.357Z,6.38
2019-03-16T04:23:10.334Z,6.42
2019-03-16T04:24:10.322Z,6.45
2019-03-16T04:25:10.367Z,6.49
2019-03-16T04:26:10.314Z,6.48
2019-03-16T04:27:16.208Z,6.52
2019-03-16T04:28:11.285Z,6.52
2019-03-16T04:29:10.380Z,6.59
2019-03-16T04:30:10.270Z,6.63
2019-03-16T04:31:10.258Z,6.66
2019-03-16T04:32:10.264Z,6.63
2019-03-16T04:33:10.225Z,6.60
2019-03-16T04:34:10.251Z,6.48
2019-03-16T04:35:10.237Z,6.42
2019-03-16T04:36:10.190Z,6.38
2019-03-16T04:37:10.201Z,6.39
2019-03-16T04:38:10.172Z,6.41
2019-03-16T04:39:10.208Z,6.48
2019-03-16T04:40:10.172Z,6.48
2019-03-16T04:41:10.138Z,6.54
2019-03-16T04:42:10.133Z,6.56
2019-03-16T04:43:10.121Z,6.59
2019-03-16T04:44:10.118Z,6.54
2019-03-16T04:45:10.114Z,6.59
2019-03-16T04:46:10.097Z,6.51
2019-03-16T04:47:10.081Z,6.54
2019-03-16T04:48:10.067Z,6.49
2019-03-16T04:49:10.075Z,6.51
2019-03-16T04:50:10.031Z,6.51
2019-03-16T04:51:10.054Z,6.48
2019-03-16T04:52:10.013Z,6.48
2019-03-16T04:53:10.021Z,6.41
2019-03-16T04:54:10.024Z,6.39
2019-03-16T04:55:09.985Z,6.38
2019-03-16T04:56:09.968Z,6.38
2019-03-16T04:57:09.997Z,6.45
2019-03-16T04:58:09.948Z,6.41
2019-03-16T04:59:09.953Z,6.44
2019-03-16T05:00:09.941Z,6.44
2019-03-16T05:01:09.915Z,6.35
2019-03-16T05:02:09.927Z,6.46
2019-03-16T05:03:09.914Z,6.33
2019-03-16T05:04:09.891Z,6.36
2019-03-16T05:05:09.891Z,6.44
2019-03-16T05:06:09.868Z,6.44
2019-03-16T05:07:09.910Z,6.41
2019-03-16T05:08:09.861Z,6.41
2019-03-16T05:09:09.876Z,6.36
2019-03-16T05:10:09.822Z,6.36
2019-03-16T05:11:09.842Z,6.35
2019-03-16T05:12:09.796Z,6.30
2019-03-16T05:13:09.796Z,6.26
2019-03-16T05:14:09.787Z,6.35
2019-03-16T05:15:09.772Z,6.27
2019-03-16T05:16:09.776Z,6.31
2019-03-16T05:17:09.768Z,6.33
2019-03-16T05:18:09.767Z,6.31
2019-03-16T05:19:09.714Z,6.31
2019-03-16T05:20:09.716Z,6.30
2019-03-16T05:21:09.705Z,6.35
2019-03-16T05:22:09.708Z,6.28
2019-03-16T05:23:09.706Z,6.28
2019-03-16T05:24:09.663Z,6.28
2019-03-16T05:25:09.651Z,6.35
2019-03-16T05:26:09.663Z,6.30
2019-03-16T05:27:09.634Z,6.31
2019-03-16T05:28:09.652Z,6.33
2019-03-16T05:29:09.615Z,6.31
2019-03-16T05:30:09.643Z,6.28
2019-03-16T05:31:09.590Z,6.31
2019-03-16T05:32:09.584Z,6.30
2019-03-16T05:33:09.588Z,6.28
2019-03-16T05:34:09.600Z,6.31
2019-03-16T05:35:09.537Z,6.28
2019-03-16T05:36:09.524Z,6.30
2019-03-16T05:37:09.519Z,6.38
2019-03-16T05:38:09.517Z,6.38
2019-03-16T05:39:09.531Z,6.41
2019-03-16T05:40:09.497Z,6.39
2019-03-16T05:41:09.473Z,6.39
2019-03-16T05:42:09.476Z,6.42
2019-03-16T05:43:09.458Z,6.52
2019-03-16T05:44:09.445Z,6.54
2019-03-16T05:45:09.452Z,6.66
2019-03-16T05:46:09.422Z,6.60
2019-03-16T05:47:09.411Z,6.62
2019-03-16T05:48:09.411Z,6.62
2019-03-16T05:49:09.383Z,6.64
2019-03-16T05:50:09.383Z,6.67
2019-03-16T05:51:09.389Z,6.67
2019-03-16T05:52:09.366Z,6.67
2019-03-16T05:53:09.344Z,6.70
2019-03-16T05:54:09.329Z,6.63
2019-03-16T05:55:09.323Z,6.72
2019-03-16T05:56:09.338Z,6.69
2019-03-16T05:57:09.301Z,6.67
2019-03-16T05:58:09.283Z,6.79
2019-03-16T05:59:09.283Z,6.78
2019-03-16T06:00:09.962Z,6.70
2019-03-16T06:01:09.266Z,6.84
2019-03-16T06:02:09.271Z,6.87
2019-03-16T06:03:09.261Z,6.82
2019-03-16T06:04:09.220Z,6.85
2019-03-16T06:05:11.054Z,6.84
2019-03-16T06:06:09.208Z,6.82
2019-03-16T06:07:09.195Z,6.84
2019-03-16T06:08:09.174Z,6.87
2019-03-16T06:09:09.195Z,7.02
2019-03-16T06:10:09.172Z,7.03
2019-03-16T06:11:09.138Z,7.10
2019-03-16T06:12:09.133Z,7.10
2019-03-16T06:13:09.154Z,7.03
2019-03-16T06:14:09.111Z,7.14
2019-03-16T06:15:09.130Z,7.25
2019-03-16T06:16:09.117Z,7.21
2019-03-16T06:17:09.079Z,7.23
2019-03-16T06:18:09.074Z,7.38
2019-03-16T06:19:09.066Z,7.36
2019-03-16T06:20:09.053Z,7.42
2019-03-16T06:21:09.029Z,7.48
2019-03-16T06:22:09.040Z,7.69
2019-03-16T06:23:09.036Z,7.88
2019-03-16T06:24:09.039Z,8.06
2019-03-16T06:25:08.992Z,7.88
2019-03-16T06:26:08.977Z,7.93
2019-03-16T06:27:08.985Z,7.98
2019-03-16T06:28:08.992Z,8.33
2019-03-16T06:29:08.950Z,8.46
2019-03-16T06:30:08.952Z,8.63
2019-03-16T06:31:08.925Z,9.00
2019-03-16T06:32:08.913Z,9.13
2019-03-16T06:33:08.900Z,9.00
2019-03-16T06:34:08.915Z,8.81
2019-03-16T06:35:08.894Z,8.71
2019-03-16T06:36:08.868Z,8.79
2019-03-16T06:37:08.854Z,9.21
2019-03-16T06:38:08.860Z,9.48
2019-03-16T06:39:08.860Z,9.76
2019-03-16T06:40:08.847Z,9.92
2019-03-16T06:41:08.813Z,9.61
2019-03-16T06:42:08.795Z,9.22
2019-03-16T06:43:08.831Z,8.99
2019-03-16T06:44:08.821Z,8.82
2019-03-16T06:45:08.871Z,8.71
2019-03-16T06:46:08.766Z,8.60
2019-03-16T06:47:08.744Z,8.52
2019-03-16T06:48:08.761Z,8.53
2019-03-16T06:49:08.727Z,8.55
2019-03-16T06:50:08.836Z,8.38
2019-03-16T06:51:08.745Z,8.42
2019-03-16T06:52:08.684Z,8.27
2019-03-16T06:53:08.703Z,8.24
2019-03-16T06:54:08.668Z,8.15
2019-03-16T06:55:08.658Z,8.08
2019-03-16T06:56:08.657Z,8.15
2019-03-16T06:57:08.755Z,8.19
2019-03-16T06:58:08.626Z,8.28
2019-03-16T06:59:08.636Z,8.38
2019-03-16T07:00:08.606Z,8.45
2019-03-16T07:01:08.616Z,8.81
2019-03-16T07:02:08.585Z,9.03
2019-03-16T07:03:08.612Z,8.99
2019-03-16T07:04:08.560Z,9.02
2019-03-16T07:05:08.545Z,8.99
2019-03-16T07:06:08.538Z,9.06
2019-03-16T07:07:08.535Z,9.16
2019-03-16T07:08:08.545Z,9.29
2019-03-16T07:09:08.551Z,9.61
2019-03-16T07:10:08.501Z,10.23
2019-03-16T07:11:08.530Z,10.96
2019-03-16T07:12:08.469Z,11.55
2019-03-16T07:13:08.463Z,12.17
2019-03-16T07:14:08.448Z,12.57
2019-03-16T07:15:08.442Z,12.35
2019-03-16T07:16:08.422Z,12.18
2019-03-16T07:17:08.439Z,11.60
2019-03-16T07:18:08.412Z,11.02
2019-03-16T07:19:08.396Z,10.59
2019-03-16T07:20:08.389Z,10.20
2019-03-16T07:21:08.370Z,10.15
2019-03-16T07:22:08.353Z,9.99
2019-03-16T07:23:08.414Z,10.01
2019-03-16T07:24:08.368Z,9.89
2019-03-16T07:25:08.335Z,9.79
2019-03-16T07:26:14.676Z,9.58
2019-03-16T07:27:09.299Z,9.47
2019-03-16T07:28:08.302Z,9.34
2019-03-16T07:29:08.290Z,9.19
2019-03-16T07:30:15.022Z,9.19
2019-03-16T07:31:08.266Z,9.26
2019-03-16T07:32:08.247Z,9.39
2019-03-16T07:33:08.255Z,9.43
2019-03-16T07:34:08.222Z,9.47
2019-03-16T07:35:08.223Z,9.56
2019-03-16T07:36:08.207Z,9.56
2019-03-16T07:37:08.244Z,9.58
2019-03-16T07:38:08.201Z,9.94
2019-03-16T07:39:08.202Z,10.25
2019-03-16T07:40:08.158Z,10.25
2019-03-16T07:41:08.199Z,10.10
2019-03-16T07:42:08.167Z,10.02
2019-03-16T07:43:08.141Z,10.09
2019-03-16T07:44:08.119Z,10.16
2019-03-16T07:45:08.926Z,10.81
2019-03-16T07:46:08.091Z,10.79
2019-03-16T07:47:08.103Z,10.60
2019-03-16T07:48:08.109Z,10.40
2019-03-16T07:49:08.059Z,10.71
2019-03-16T07:50:08.061Z,10.96
2019-03-16T07:51:08.032Z,11.00
2019-03-16T07:52:08.077Z,11.29
2019-03-16T07:53:08.036Z,11.29
2019-03-16T07:54:08.037Z,11.00
2019-03-16T07:55:08.000Z,10.71
2019-03-16T07:56:08.001Z,10.59
2019-03-16T07:57:08.009Z,10.38
2019-03-16T07:58:08.005Z,10.38
2019-03-16T07:59:07.966Z,10.22
2019-03-16T08:00:07.985Z,10.07
2019-03-16T08:01:07.930Z,10.05
2019-03-16T08:02:07.910Z,10.20
2019-03-16T08:03:07.939Z,10.28
2019-03-16T08:04:07.922Z,10.46
2019-03-16T08:05:18.090Z,10.48
2019-03-16T08:06:08.871Z,10.59
2019-03-16T08:07:07.866Z,10.57
2019-03-16T08:08:07.903Z,10.46
2019-03-16T08:09:07.868Z,10.37
2019-03-16T08:10:07.829Z,10.23
2019-03-16T08:11:07.819Z,10.25
2019-03-16T08:12:07.810Z,10.26
2019-03-16T08:13:07.831Z,10.28
2019-03-16T08:14:07.848Z,10.20
2019-03-16T08:15:07.777Z,10.35
2019-03-16T08:16:07.757Z,10.57
2019-03-16T08:17:07.755Z,10.61
2019-03-16T08:18:08.123Z,10.79
2019-03-16T08:19:07.734Z,10.78
2019-03-16T08:20:07.736Z,10.72
2019-03-16T08:21:07.719Z,10.81
2019-03-16T08:22:07.688Z,10.84
2019-03-16T08:23:07.755Z,10.84
2019-03-16T08:24:08.428Z,10.60
2019-03-16T08:25:07.662Z,10.54
2019-03-16T08:26:07.704Z,10.46
2019-03-16T08:27:07.850Z,10.35
2019-03-16T08:28:07.624Z,10.26
2019-03-16T08:29:07.618Z,10.22
2019-03-16T08:30:07.600Z,10.19
2019-03-16T08:31:07.607Z,10.26
2019-03-16T08:32:07.607Z,10.35
2019-03-16T08:33:07.575Z,10.56
2019-03-16T08:34:07.558Z,10.53
2019-03-16T08:35:07.559Z,10.54
2019-03-16T08:36:07.539Z,10.31
2019-03-16T08:37:07.560Z,10.33
2019-03-16T08:38:07.526Z,10.34
2019-03-16T08:39:07.512Z,10.46
2019-03-16T08:40:07.497Z,10.61
2019-03-16T08:41:07.483Z,10.78
2019-03-16T08:42:07.482Z,10.86
2019-03-16T08:43:07.496Z,10.81
2019-03-16T08:44:07.452Z,10.72
2019-03-16T08:45:07.440Z,10.63
2019-03-16T08:46:07.449Z,10.56
2019-03-16T08:47:07.412Z,10.54
2019-03-16T08:48:07.416Z,10.69
2019-03-16T08:49:07.461Z,10.87
2019-03-16T08:50:07.391Z,10.81
2019-03-16T08:51:07.380Z,10.86
2019-03-16T08:52:07.382Z,10.93
2019-03-16T08:53:07.378Z,10.96
2019-03-16T08:54:07.361Z,10.94
2019-03-16T08:55:07.336Z,10.84
2019-03-16T08:56:07.310Z,11.15
2019-03-16T08:57:07.330Z,11.19
2019-03-16T08:58:07.301Z,11.07
2019-03-16T08:59:07.286Z,11.05
2019-03-16T09:00:07.320Z,11.26
2019-03-16T09:01:07.367Z,11.04
2019-03-16T09:02:07.280Z,10.89
2019-03-16T09:03:07.255Z,10.63
2019-03-16T09:04:07.251Z,11.07
2019-03-16T09:05:07.215Z,11.78
2019-03-16T09:06:07.266Z,11.78
2019-03-16T09:07:07.212Z,11.94
2019-03-16T09:08:07.179Z,11.66
2019-03-16T09:09:07.185Z,11.57
2019-03-16T09:10:07.188Z,12.06
2019-03-16T09:11:07.157Z,12.09
2019-03-16T09:12:07.200Z,12.65
2019-03-16T09:13:07.146Z,12.72
2019-03-16T09:14:07.143Z,12.32
2019-03-16T09:15:07.138Z,12.17
2019-03-16T09:16:07.136Z,11.86
2019-03-16T09:17:09.035Z,11.69
2019-03-16T09:18:07.080Z,11.62
2019-03-16T09:19:07.082Z,11.75
2019-03-16T09:20:07.061Z,11.62
2019-03-16T09:21:07.056Z,11.32
2019-03-16T09:22:07.107Z,11.12
2019-03-16T09:23:07.045Z,11.15
2019-03-16T09:24:07.047Z,11.04
2019-03-16T09:25:07.015Z,11.00
2019-03-16T09:26:06.989Z,11.19
2019-03-16T09:27:06.997Z,11.41
2019-03-16T09:28:18.055Z,11.55
2019-03-16T09:29:14.822Z,11.66
2019-03-16T09:30:07.999Z,11.84
2019-03-16T09:31:06.959Z,12.09
2019-03-16T09:32:06.935Z,12.27
2019-03-16T09:33:06.938Z,12.43
2019-03-16T09:34:06.908Z,12.39
2019-03-16T09:35:06.884Z,12.35
2019-03-16T09:36:06.901Z,12.27
2019-03-16T09:37:06.893Z,12.27
2019-03-16T09:38:06.876Z,12.65
2019-03-16T09:39:06.839Z,13.23
2019-03-16T09:40:06.836Z,13.90
2019-03-16T09:41:06.834Z,13.93
2019-03-16T09:42:06.832Z,14.07
2019-03-16T09:43:06.804Z,13.77
2019-03-16T09:44:06.812Z,13.68
2019-03-16T09:45:06.832Z,13.49
2019-03-16T09:46:06.781Z,13.46
2019-03-16T09:47:06.764Z,12.95
2019-03-16T09:48:06.803Z,12.78
2019-03-16T09:49:06.735Z,12.78
2019-03-16T09:50:07.502Z,12.78
2019-03-16T09:51:06.711Z,12.70
2019-03-16T09:52:06.771Z,12.55
2019-03-16T09:53:06.691Z,12.54
2019-03-16T09:54:06.708Z,12.83
2019-03-16T09:55:06.665Z,12.98
2019-03-16T09:56:06.654Z,13.25
2019-03-16T09:57:06.640Z,13.30
2019-03-16T09:58:06.625Z,13.28
2019-03-16T09:59:06.629Z,13.50
2019-03-16T10:00:06.645Z,13.57
2019-03-16T10:01:06.617Z,13.75
2019-03-16T10:02:06.590Z,13.75
2019-03-16T10:03:06.565Z,13.75
2019-03-16T10:04:06.561Z,13.63
2019-03-16T10:05:06.565Z,14.00
2019-03-16T10:06:06.561Z,14.59
2019-03-16T10:07:06.537Z,15.21
2019-03-16T10:08:06.536Z,15.54
2019-03-16T10:09:06.504Z,15.58
2019-03-16T10:10:06.499Z,15.98
2019-03-16T10:11:06.512Z,16.21
2019-03-16T10:12:06.481Z,15.91
2019-03-16T10:13:06.478Z,15.03
2019-03-16T10:14:06.452Z,14.55
2019-03-16T10:15:06.471Z,14.05
2019-03-16T10:16:06.433Z,13.65
2019-03-16T10:17:06.433Z,13.39
2019-03-16T10:18:06.437Z,13.25
2019-03-16T10:19:06.406Z,13.25
2019-03-16T10:20:06.377Z,13.97
2019-03-16T10:21:06.430Z,14.14
2019-03-16T10:22:06.370Z,13.71
2019-03-16T10:23:06.377Z,13.25
2019-03-16T10:24:06.348Z,13.05
2019-03-16T10:25:06.331Z,12.95
2019-03-16T10:26:06.304Z,12.80
2019-03-16T10:27:06.331Z,13.04
2019-03-16T10:28:06.321Z,13.30
2019-03-16T10:29:06.289Z,13.39
2019-03-16T10:30:06.293Z,13.62
2019-03-16T10:31:06.302Z,13.52
2019-03-16T10:32:06.281Z,13.62
2019-03-16T10:33:06.252Z,13.60
2019-03-16T10:34:06.305Z,13.72
2019-03-16T10:35:06.248Z,13.31
2019-03-16T10:36:06.220Z,12.85
2019-03-16T10:37:06.245Z,12.72
2019-03-16T10:38:06.219Z,12.43
2019-03-16T10:39:06.254Z,12.55
2019-03-16T10:40:06.565Z,12.40
2019-03-16T10:41:06.223Z,12.39
2019-03-16T10:42:06.278Z,12.25
2019-03-16T10:43:06.213Z,12.28
2019-03-16T10:44:06.170Z,12.31
2019-03-16T10:45:06.187Z,12.43
2019-03-16T10:46:08.449Z,12.47
2019-03-16T10:47:06.113Z,12.46
2019-03-16T10:48:06.935Z,12.45
2019-03-16T10:49:07.080Z,12.21
2019-03-16T10:50:06.133Z,12.12
2019-03-16T10:51:08.049Z,12.06
2019-03-16T10:52:06.068Z,11.78
2019-03-16T10:53:06.035Z,11.83
2019-03-16T10:54:06.051Z,11.83
2019-03-16T10:55:06.002Z,11.72
2019-03-16T10:56:06.033Z,11.81
2019-03-16T10:57:06.096Z,12.02
2019-03-16T10:58:05.976Z,12.25
2019-03-16T10:59:05.943Z,12.27
2019-03-16T11:00:05.952Z,12.45
2019-03-16T11:01:09.012Z,12.76
2019-03-16T11:02:05.950Z,12.94
2019-03-16T11:03:05.906Z,12.80
2019-03-16T11:04:05.894Z,12.76
2019-03-16T11:05:05.919Z,12.65
2019-03-16T11:06:05.884Z,12.55
2019-03-16T11:07:05.979Z,12.37
2019-03-16T11:08:05.847Z,12.21
2019-03-16T11:09:05.834Z,12.20
2019-03-16T11:10:05.842Z,11.91
2019-03-16T11:11:05.843Z,11.81
2019-03-16T11:12:05.805Z,11.68
2019-03-16T11:13:05.815Z,11.77
2019-03-16T11:14:07.587Z,11.66
2019-03-16T11:15:05.770Z,11.69
2019-03-16T11:16:05.755Z,11.69
2019-03-16T11:17:05.774Z,11.70
2019-03-16T11:18:05.750Z,11.63
2019-03-16T11:19:05.718Z,11.73
2019-03-16T11:20:05.709Z,11.72
2019-03-16T11:21:05.692Z,11.77
2019-03-16T11:22:06.018Z,11.73
2019-03-16T11:23:05.717Z,11.66
2019-03-16T11:24:05.664Z,11.72
2019-03-16T11:25:05.702Z,11.32
2019-03-16T11:26:05.645Z,11.29
2019-03-16T11:27:05.632Z,11.25
2019-03-16T11:28:05.677Z,11.26
2019-03-16T11:29:09.207Z,11.15
2019-03-16T11:30:05.600Z,11.07
2019-03-16T11:31:05.584Z,11.00
2019-03-16T11:32:05.594Z,10.81
2019-03-16T11:33:05.625Z,10.74
2019-03-16T11:34:05.556Z,10.61
2019-03-16T11:35:05.542Z,10.37
2019-03-16T11:36:05.555Z,10.22
2019-03-16T11:37:05.522Z,10.16
2019-03-16T11:38:05.520Z,10.12
2019-03-16T11:39:05.562Z,10.04
2019-03-16T11:40:05.489Z,9.77
2019-03-16T11:41:05.478Z,9.76
2019-03-16T11:42:05.460Z,9.61
2019-03-16T11:43:05.453Z,9.65
2019-03-16T11:44:05.443Z,9.66
2019-03-16T11:45:05.566Z,9.68
2019-03-16T11:46:05.421Z,9.80
2019-03-16T11:47:05.405Z,9.77
2019-03-16T11:48:05.392Z,9.65
2019-03-16T11:49:05.401Z,9.59
2019-03-16T11:50:05.401Z,9.59
2019-03-16T11:51:05.398Z,9.59
2019-03-16T11:52:05.388Z,9.58
2019-03-16T11:53:05.370Z,9.34
2019-03-16T11:54:05.336Z,9.31
2019-03-16T11:55:05.330Z,9.18
2019-03-16T11:56:16.982Z,9.23
2019-03-16T11:57:06.349Z,9.28
2019-03-16T11:58:05.293Z,9.21
2019-03-16T11:59:05.294Z,9.26
2019-03-16T12:00:05.411Z,9.31
2019-03-16T12:01:05.263Z,9.34
2019-03-16T12:02:05.817Z,9.31
2019-03-16T12:03:05.274Z,9.26
2019-03-16T12:04:05.227Z,9.36
2019-03-16T12:05:05.264Z,9.29
2019-03-16T12:06:05.199Z,9.25
2019-03-16T12:07:05.199Z,9.34
2019-03-16T12:08:05.213Z,9.40
2019-03-16T12:09:05.164Z,9.44
2019-03-16T12:10:05.345Z,9.39
2019-03-16T12:11:05.138Z,9.41
2019-03-16T12:12:05.136Z,9.34
2019-03-16T12:13:16.663Z,9.32
2019-03-16T12:14:06.162Z,9.31
2019-03-16T12:15:05.094Z,9.28
2019-03-16T12:16:05.095Z,9.31
2019-03-16T12:17:05.078Z,9.36
2019-03-16T12:18:05.077Z,9.29
2019-03-16T12:19:05.065Z,9.29
2019-03-16T12:20:05.092Z,9.25
2019-03-16T12:21:05.060Z,9.29
2019-03-16T12:22:05.081Z,9.31
2019-03-16T12:23:05.043Z,9.21
2019-03-16T12:24:05.009Z,8.84
2019-03-16T12:25:05.027Z,8.82
2019-03-16T12:26:04.976Z,8.61
2019-03-16T12:27:05.004Z,8.48
2019-03-16T12:28:04.958Z,8.66
2019-03-16T12:29:04.955Z,8.69
2019-03-16T12:30:04.937Z,8.64
2019-03-16T12:31:04.926Z,8.55
2019-03-16T12:32:05.032Z,8.44
2019-03-16T12:33:04.895Z,8.15
2019-03-16T12:34:04.916Z,8.05
2019-03-16T12:35:04.889Z,8.00
2019-03-16T12:36:04.916Z,7.93
2019-03-16T12:37:04.922Z,7.90
2019-03-16T12:38:04.886Z,7.72
2019-03-16T12:39:04.833Z,7.57
2019-03-16T12:40:04.828Z,7.66
2019-03-16T12:41:04.828Z,7.73
2019-03-16T12:42:04.810Z,7.77
2019-03-16T12:43:04.781Z,7.87
2019-03-16T12:44:04.834Z,7.83
2019-03-16T12:45:04.789Z,7.67
2019-03-16T12:46:04.777Z,7.69
2019-03-16T12:47:04.775Z,7.67
2019-03-16T12:48:04.760Z,7.47
2019-03-16T12:49:05.564Z,7.47
2019-03-16T12:50:04.796Z,7.53
2019-03-16T12:51:04.718Z,7.47
2019-03-16T12:52:05.515Z,7.35
2019-03-16T12:53:04.676Z,7.28
2019-03-16T12:54:04.731Z,7.20
2019-03-16T12:55:04.663Z,7.07
2019-03-16T12:56:04.743Z,6.99
2019-03-16T12:57:04.763Z,7.00
2019-03-16T12:58:05.933Z,6.85
2019-03-16T12:59:10.828Z,6.75
2019-03-16T13:00:06.702Z,6.82
2019-03-16T13:01:05.550Z,6.81
2019-03-16T13:02:04.692Z,6.92
2019-03-16T13:03:04.602Z,6.87
2019-03-16T13:04:04.569Z,6.89
2019-03-16T13:05:04.542Z,6.84
2019-03-16T13:06:04.531Z,6.96
2019-03-16T13:07:08.450Z,6.82
2019-03-16T13:08:09.195Z,6.74
2019-03-16T13:09:09.690Z,6.77
2019-03-16T13:10:14.400Z,6.81